Time;durP1;ratioP1;P1;durP2;ratioP2;P2;SDS_P1;SDS_P2;PMS_P1;PMS_P2;Temp;Humidity;BMP_temperature;BMP_pressure;BME280_temperature;BME280_humidity;BME280_pressure;Samples;Min_cycle;Max_cycle;Signal;HPM_P1;HPM_P2
2021/11/29 00:00:18;;;;;;;17.15;10.93;;;-0.10;99.90;;;;;;5038261;28;20045;-88
2021/11/29 00:02:51;;;;;;;20.17;11.93;;;0.00;99.90;;;;;;5037788;28;20079;-88
2021/11/29 00:05:21;;;;;;;17.25;10.95;;;0.00;99.90;;;;;;5038346;28;20129;-88
2021/11/29 00:07:48;;;;;;;18.00;11.98;;;0.00;99.90;;;;;;5037651;28;20049;-88
2021/11/29 00:10:15;;;;;;;16.42;11.07;;;0.10;99.90;;;;;;5038122;28;20497;-88
2021/11/29 00:12:42;;;;;;;18.58;11.15;;;0.00;99.90;;;;;;5055212;28;20051;-88
2021/11/29 00:15:11;;;;;;;15.30;10.80;;;0.00;99.90;;;;;;5037703;28;20078;-88
2021/11/29 00:17:38;;;;;;;16.02;10.76;;;0.00;99.90;;;;;;5030806;28;1146444;-87
2021/11/29 00:20:08;;;;;;;15.05;10.25;;;-0.10;99.90;;;;;;5038924;28;20057;-88
2021/11/29 00:22:35;;;;;;;14.98;9.88;;;-0.10;99.90;;;;;;5056564;28;20049;-89
2021/11/29 00:25:03;;;;;;;13.82;9.43;;;-0.10;99.90;;;;;;5039104;28;20048;-89
2021/11/29 00:27:30;;;;;;;14.90;10.18;;;0.00;99.90;;;;;;5039106;28;20128;-88
2021/11/29 00:29:56;;;;;;;13.60;9.50;;;0.00;99.90;;;;;;5038994;28;20049;-88
2021/11/29 00:32:24;;;;;;;16.88;10.90;;;0.00;99.90;;;;;;5040779;28;20052;-88
2021/11/29 00:34:51;;;;;;;15.23;10.38;;;0.00;99.90;;;;;;5038925;28;20057;-89
2021/11/29 00:37:18;;;;;;;15.70;9.80;;;0.00;99.90;;;;;;5039176;28;20073;-88
2021/11/29 00:39:45;;;;;;;11.05;8.82;;;0.00;99.90;;;;;;5039029;28;20077;-88
2021/11/29 00:42:11;;;;;;;13.48;9.35;;;0.00;99.90;;;;;;5039474;28;20076;-88
2021/11/29 00:44:38;;;;;;;11.27;8.70;;;-0.10;99.90;;;;;;5038826;28;20045;-88
2021/11/29 00:47:05;;;;;;;12.98;8.57;;;-0.10;99.90;;;;;;5038709;28;20061;-88
2021/11/29 00:49:32;;;;;;;17.73;10.80;;;-0.10;99.90;;;;;;5038706;28;20048;-88
2021/11/29 00:51:59;;;;;;;19.33;11.93;;;-0.20;99.90;;;;;;5038913;28;20057;-89
2021/11/29 00:54:25;;;;;;;19.40;10.98;;;-0.10;99.90;;;;;;5038683;28;20045;-88
2021/11/29 00:56:52;;;;;;;14.38;9.43;;;-0.10;99.90;;;;;;5038617;28;20045;-88
2021/11/29 00:59:19;;;;;;;12.00;8.90;;;0.00;99.90;;;;;;5038533;28;20131;-88
2021/11/29 01:01:46;;;;;;;13.55;9.38;;;0.00;99.90;;;;;;5057850;28;20040;-88
2021/11/29 01:04:13;;;;;;;13.25;9.65;;;0.10;99.90;;;;;;5056237;28;20651;-89
2021/11/29 01:06:40;;;;;;;16.40;10.68;;;0.10;99.90;;;;;;5037838;28;20143;-89
2021/11/29 01:09:07;;;;;;;16.55;9.38;;;0.10;99.90;;;;;;5038109;28;20049;-88
2021/11/29 01:11:33;;;;;;;11.60;8.40;;;0.10;99.90;;;;;;5056143;28;20392;-88
2021/11/29 01:14:00;;;;;;;13.20;9.30;;;0.00;99.90;;;;;;5037886;28;20051;-88
2021/11/29 01:16:27;;;;;;;14.70;8.95;;;0.10;99.90;;;;;;5038227;28;20124;-88
2021/11/29 01:18:54;;;;;;;13.18;9.13;;;0.10;99.90;;;;;;5037831;28;20083;-89
2021/11/29 01:21:21;;;;;;;15.38;9.55;;;0.20;99.90;;;;;;5038244;28;20135;-89
2021/11/29 01:23:48;;;;;;;12.27;8.98;;;0.00;99.90;;;;;;5038482;28;20052;-89
2021/11/29 01:26:15;;;;;;;11.52;8.63;;;0.00;99.90;;;;;;5038476;28;20518;-88
2021/11/29 01:28:42;;;;;;;14.05;8.50;;;0.00;99.90;;;;;;5055924;28;20588;-89
2021/11/29 01:31:09;;;;;;;10.63;8.20;;;0.00;99.90;;;;;;5038091;28;20132;-89
2021/11/29 01:33:36;;;;;;;12.80;9.15;;;-0.10;99.90;;;;;;5055795;28;20132;-89
2021/11/29 01:36:04;;;;;;;10.48;8.30;;;-0.10;99.90;;;;;;5038568;28;20084;-89
2021/11/29 01:38:31;;;;;;;11.35;7.43;;;-0.10;99.90;;;;;;5055391;28;20055;-89
2021/11/29 01:40:58;;;;;;;11.90;8.32;;;-0.20;99.90;;;;;;5055768;28;20055;-88
2021/11/29 01:43:25;;;;;;;12.45;7.75;;;-0.30;99.90;;;;;;5038105;28;20048;-89
2021/11/29 01:45:54;;;;;;;13.00;7.80;;;-0.40;99.90;;;;;;5038055;28;20053;-89
2021/11/29 01:48:23;;;;;;;10.48;7.25;;;-0.50;99.90;;;;;;5055646;28;20080;-88
2021/11/29 01:50:55;;;;;;;8.88;7.18;;;-0.70;99.90;;;;;;5037410;28;20124;-89
2021/11/29 01:53:25;;;;;;;9.20;6.88;;;-0.80;99.90;;;;;;5037711;28;20052;-88
2021/11/29 01:55:57;;;;;;;9.95;6.97;;;-0.80;99.90;;;;;;5037921;28;20083;-88
2021/11/29 01:58:26;;;;;;;8.90;6.53;;;-0.90;99.90;;;;;;5038192;28;20049;-88
2021/11/29 02:00:56;;;;;;;9.52;6.72;;;-1.00;99.90;;;;;;5037665;28;20045;-89
2021/11/29 02:03:24;;;;;;;8.65;6.97;;;-1.10;99.90;;;;;;5037728;28;20524;-89
2021/11/29 02:05:52;;;;;;;9.75;6.95;;;-1.20;99.90;;;;;;5037558;28;20550;-89
2021/11/29 02:08:19;;;;;;;9.70;6.97;;;-1.30;99.90;;;;;;5037538;28;20052;-89
2021/11/29 02:10:46;;;;;;;10.35;6.45;;;-1.40;99.90;;;;;;5037682;28;20140;-89
2021/11/29 02:13:15;;;;;;;8.82;6.57;;;-1.50;99.90;;;;;;5037697;28;20045;-89
2021/11/29 02:15:42;;;;;;;10.75;7.32;;;-1.50;99.90;;;;;;5037730;28;20128;-89
2021/11/29 02:18:09;;;;;;;8.40;7.15;;;-1.60;99.90;;;;;;5036524;28;20511;-89
2021/11/29 02:20:36;;;;;;;13.38;8.98;;;-1.60;99.90;;;;;;5037435;28;20057;-89
2021/11/29 02:23:05;;;;;;;14.77;9.40;;;-1.60;99.90;;;;;;5037579;28;20047;-89
2021/11/29 02:25:32;;;;;;;10.88;8.18;;;-1.50;99.90;;;;;;5037684;28;20045;-89
2021/11/29 02:27:59;;;;;;;15.32;8.82;;;-1.40;99.90;;;;;;5037596;28;20665;-90
2021/11/29 02:30:26;;;;;;;16.60;9.68;;;-1.30;99.90;;;;;;5037314;28;20077;-90
2021/11/29 02:32:54;;;;;;;13.20;8.48;;;-1.30;99.90;;;;;;5037161;28;20045;-89
2021/11/29 02:35:21;;;;;;;15.18;8.48;;;-1.30;99.90;;;;;;5054799;28;20135;-89
2021/11/29 02:37:49;;;;;;;10.32;7.60;;;-1.30;99.90;;;;;;5037286;28;20168;-90
2021/11/29 02:40:16;;;;;;;12.65;7.68;;;-1.30;99.90;;;;;;5055075;28;20424;-89
2021/11/29 02:42:43;;;;;;;10.18;7.40;;;-1.30;99.90;;;;;;5037209;28;20049;-90
2021/11/29 02:45:10;;;;;;;9.02;6.60;;;-1.40;99.90;;;;;;5037165;28;20503;-90
2021/11/29 02:47:37;;;;;;;12.10;7.43;;;-1.60;99.90;;;;;;5036925;28;20418;-90
2021/11/29 02:50:04;;;;;;;9.00;6.65;;;-1.70;99.90;;;;;;5037035;28;20076;-89
2021/11/29 02:52:31;;;;;;;8.82;6.22;;;-1.80;99.90;;;;;;5037030;28;20098;-90
2021/11/29 02:54:57;;;;;;;8.35;6.60;;;-1.90;99.90;;;;;;5036727;28;20044;-90
2021/11/29 02:57:24;;;;;;;7.78;5.72;;;-2.00;99.90;;;;;;5043213;28;20135;-90
2021/11/29 02:59:52;;;;;;;10.35;6.45;;;-2.10;99.90;;;;;;5051671;28;20481;-91
2021/11/29 03:02:20;;;;;;;8.82;6.07;;;-2.20;99.90;;;;;;5036988;28;20443;-90
2021/11/29 03:04:48;;;;;;;8.50;6.30;;;-2.30;99.90;;;;;;5036786;28;20546;-90
2021/11/29 03:07:16;;;;;;;9.00;6.13;;;-2.30;99.90;;;;;;5036702;28;20052;-90
2021/11/29 03:09:44;;;;;;;8.18;6.20;;;-2.40;99.90;;;;;;5036645;28;20508;-90
2021/11/29 03:12:11;;;;;;;8.20;6.20;;;-2.60;99.90;;;;;;5036674;28;20128;-90
2021/11/29 03:14:38;;;;;;;12.80;7.47;;;-2.50;99.90;;;;;;5036385;28;20053;-90
2021/11/29 03:17:07;;;;;;;10.38;7.15;;;-2.60;99.90;;;;;;5036526;28;20461;-90
2021/11/29 03:19:37;;;;;;;11.57;7.22;;;-2.70;99.90;;;;;;5036269;28;20076;-90
2021/11/29 03:22:06;;;;;;;9.02;6.97;;;-2.70;99.90;;;;;;5036537;28;20115;-91
2021/11/29 03:24:34;;;;;;;9.45;6.80;;;-2.60;99.90;;;;;;5036407;28;20135;-91
2021/11/29 03:27:00;;;;;;;10.07;6.97;;;-2.60;99.90;;;;;;5036432;28;20505;-91
2021/11/29 03:29:27;;;;;;;10.35;6.93;;;-2.60;99.90;;;;;;5036090;28;20044;-91
2021/11/29 03:31:59;;;;;;;10.20;7.57;;;-2.70;99.90;;;;;;5036582;28;20121;-91
2021/11/29 03:34:27;;;;;;;13.40;7.55;;;-2.60;99.90;;;;;;5036368;28;20080;-90
2021/11/29 03:36:56;;;;;;;11.32;6.93;;;-2.70;99.90;;;;;;5035958;28;20140;-91
2021/11/29 03:39:27;;;;;;;10.00;7.32;;;-2.70;99.90;;;;;;5036407;28;20057;-91
2021/11/29 03:41:56;;;;;;;13.38;8.23;;;-2.60;99.90;;;;;;5036150;28;20068;-91
2021/11/29 03:44:23;;;;;;;14.65;9.70;;;-2.50;99.90;;;;;;5036237;28;20132;-91
2021/11/29 03:46:52;;;;;;;17.20;9.93;;;-2.30;99.90;;;;;;5036266;28;20404;-91
2021/11/29 03:49:19;;;;;;;15.73;9.40;;;-2.10;99.90;;;;;;5036421;28;20511;-90
2021/11/29 03:51:46;;;;;;;24.65;11.05;;;-2.00;99.90;;;;;;5036324;28;20077;-91
2021/11/29 03:54:14;;;;;;;18.63;10.18;;;-1.90;99.90;;;;;;5036190;28;20051;-91
2021/11/29 03:56:41;;;;;;;16.05;9.65;;;-1.90;99.90;;;;;;5036169;28;20557;-91
2021/11/29 03:59:08;;;;;;;14.75;9.77;;;-1.80;99.90;;;;;;5036480;28;20053;-91
2021/11/29 04:01:35;;;;;;;16.70;9.02;;;-1.70;99.90;;;;;;5036347;28;20053;-91
2021/11/29 04:04:03;;;;;;;13.52;8.48;;;-1.70;99.90;;;;;;5036162;28;20048;-91
2021/11/29 04:06:31;;;;;;;14.30;8.88;;;-1.60;99.90;;;;;;5036173;28;20053;-91
2021/11/29 04:08:58;;;;;;;17.55;9.20;;;-1.60;99.90;;;;;;5036166;28;20556;-91
2021/11/29 04:11:25;;;;;;;14.00;9.38;;;-1.60;99.90;;;;;;5036210;28;20489;-91
2021/11/29 04:13:52;;;;;;;13.95;9.20;;;-1.50;99.90;;;;;;5036154;28;20511;-91
2021/11/29 04:16:19;;;;;;;13.32;8.85;;;-1.50;99.90;;;;;;5035834;28;20065;-91
2021/11/29 04:18:46;;;;;;;11.43;7.60;;;-1.40;99.90;;;;;;5035583;28;20513;-91
2021/11/29 04:21:14;;;;;;;13.15;8.18;;;-1.40;99.90;;;;;;5036276;28;20073;-91
2021/11/29 04:23:44;;;;;;;12.27;7.97;;;-1.50;99.90;;;;;;5036316;28;20554;-91
2021/11/29 04:26:15;;;;;;;10.50;7.22;;;-1.40;99.90;;;;;;5036482;28;20136;-91
2021/11/29 04:28:42;;;;;;;9.25;7.35;;;-1.50;99.90;;;;;;5036191;28;20056;-91
2021/11/29 04:31:09;;;;;;;10.95;7.85;;;-1.40;99.90;;;;;;5036272;28;20056;-91
2021/11/29 04:33:36;;;;;;;13.98;7.80;;;-1.40;99.90;;;;;;5036049;28;20056;-91
2021/11/29 04:36:04;;;;;;;10.48;7.90;;;-1.40;99.90;;;;;;5035989;28;20140;-91
2021/11/29 04:38:31;;;;;;;12.15;8.45;;;-1.30;99.90;;;;;;5036139;28;20045;-92
2021/11/29 04:40:58;;;;;;;11.27;8.23;;;-1.30;99.90;;;;;;5036896;28;20069;-91
2021/11/29 04:43:25;;;;;;;16.42;9.93;;;-1.30;99.90;;;;;;5039817;28;20441;-91
2021/11/29 04:45:52;;;;;;;12.45;8.25;;;-1.40;99.90;;;;;;5039681;28;20483;-91
2021/11/29 04:48:19;;;;;;;15.65;9.63;;;-1.40;99.90;;;;;;5039369;28;20473;-91
2021/11/29 04:50:46;;;;;;;16.50;9.40;;;-1.30;99.90;;;;;;5039468;28;20152;-90
2021/11/29 04:53:13;;;;;;;14.95;9.82;;;-1.30;99.90;;;;;;5039536;28;20075;-91
2021/11/29 04:55:39;;;;;;;13.57;9.00;;;-1.30;99.90;;;;;;5039345;28;20076;-91
2021/11/29 04:58:06;;;;;;;16.52;9.23;;;-1.20;99.90;;;;;;5039262;28;20501;-91
2021/11/29 05:00:33;;;;;;;16.42;9.45;;;-1.20;99.90;;;;;;5039191;28;20408;-91
2021/11/29 05:03:00;;;;;;;20.25;9.82;;;-1.30;99.90;;;;;;5039113;28;20723;-91
2021/11/29 05:05:27;;;;;;;19.58;11.32;;;-1.30;99.90;;;;;;5039154;28;20421;-91
2021/11/29 05:08:14;;;;;;;24.77;14.73;;;-1.30;99.90;;;;;;5041972;28;20064;-91
2021/11/29 05:10:41;;;;;;;21.17;12.68;;;-1.10;99.90;;;;;;5038738;28;20131;-91
2021/11/29 05:13:09;;;;;;;20.13;12.05;;;-1.00;99.90;;;;;;5038871;28;20131;-91
2021/11/29 05:15:35;;;;;;;15.10;9.68;;;-1.00;99.90;;;;;;5038736;28;20132;-91
2021/11/29 05:18:02;;;;;;;15.50;9.50;;;-0.90;99.90;;;;;;5038876;28;20132;-89
2021/11/29 05:20:29;;;;;;;11.77;8.35;;;-0.80;99.90;;;;;;5040639;28;20087;-92
2021/11/29 05:22:56;;;;;;;13.40;8.95;;;-0.80;99.90;;;;;;5058582;28;20272;-90
2021/11/29 05:25:23;;;;;;;11.93;8.55;;;-0.80;99.90;;;;;;5042823;28;20196;-90
2021/11/29 05:27:49;;;;;;;11.25;8.55;;;-0.80;99.90;;;;;;5038588;28;20056;-91
2021/11/29 05:30:16;;;;;;;9.63;7.22;;;-0.80;99.90;;;;;;5038804;28;20558;-91
2021/11/29 05:32:43;;;;;;;10.05;7.10;;;-0.70;99.90;;;;;;5038512;28;20132;-90
2021/11/29 05:35:10;;;;;;;11.38;7.25;;;-0.70;99.90;;;;;;5038411;28;20079;-91
2021/11/29 05:37:37;;;;;;;10.10;7.50;;;-0.70;99.90;;;;;;5038633;28;20420;-91
2021/11/29 05:40:05;;;;;;;9.23;7.00;;;-0.70;99.90;;;;;;5038581;28;20517;-91
2021/11/29 05:42:43;;;;;;;12.02;8.48;;;-0.60;99.90;;;;;;5039837;28;20068;-91
2021/11/29 05:45:11;;;;;;;10.05;7.93;;;-0.60;99.90;;;;;;5038323;28;20386;-91
2021/11/29 05:47:38;;;;;;;9.05;6.85;;;-0.60;99.90;;;;;;5038365;28;20136;-91
2021/11/29 05:50:08;;;;;;;14.32;7.18;;;-0.60;99.90;;;;;;5038428;28;20413;-90
2021/11/29 05:52:35;;;;;;;10.07;7.38;;;-0.60;99.90;;;;;;5036992;28;20136;-91
2021/11/29 05:55:06;;;;;;;12.05;7.75;;;-0.70;99.90;;;;;;5037979;28;20132;-91
2021/11/29 05:57:36;;;;;;;54.45;31.90;;;-0.70;99.90;;;;;;5038543;28;20075;-91
2021/11/29 06:00:08;;;;;;;25.67;16.17;;;-0.70;99.90;;;;;;5038093;28;20196;-91
2021/11/29 06:02:35;;;;;;;23.25;12.93;;;-0.60;99.90;;;;;;5038643;28;20057;-91
2021/11/29 06:05:02;;;;;;;16.60;10.35;;;-0.60;99.90;;;;;;5037867;28;20075;-91
2021/11/29 06:07:29;;;;;;;13.60;9.98;;;-0.50;99.90;;;;;;5037875;28;20049;-90
2021/11/29 06:09:56;;;;;;;17.05;10.30;;;-0.50;99.90;;;;;;5038084;28;20201;-91
2021/11/29 06:12:22;;;;;;;11.93;8.90;;;-0.50;99.90;;;;;;5037977;28;20068;-91
2021/11/29 06:14:49;;;;;;;18.63;11.85;;;-0.60;99.90;;;;;;5037961;28;20496;-91
2021/11/29 06:17:16;;;;;;;18.08;11.45;;;-0.60;99.90;;;;;;5037464;28;20420;-91
2021/11/29 06:19:43;;;;;;;14.60;9.82;;;-0.60;99.90;;;;;;5037535;28;20131;-90
2021/11/29 06:22:10;;;;;;;14.02;9.05;;;-0.70;99.90;;;;;;5037671;28;20496;-91
2021/11/29 06:24:37;;;;;;;19.90;14.82;;;-0.80;99.90;;;;;;5037548;28;20060;-90
2021/11/29 06:27:04;;;;;;;24.30;15.65;;;-0.70;99.90;;;;;;5036264;28;20125;-91
2021/11/29 06:29:31;;;;;;;18.27;11.55;;;-0.70;99.90;;;;;;5037002;28;20135;-91
2021/11/29 06:31:57;;;;;;;14.85;10.68;;;-0.60;99.90;;;;;;5037277;28;20142;-91
2021/11/29 06:34:25;;;;;;;15.10;10.40;;;-0.60;99.90;;;;;;5037048;28;20144;-91
2021/11/29 06:36:53;;;;;;;17.67;11.23;;;-0.50;99.90;;;;;;5036818;28;20497;-91
2021/11/29 06:39:20;;;;;;;12.85;9.60;;;-0.50;99.90;;;;;;5037259;28;20109;-91
2021/11/29 06:41:48;;;;;;;15.27;9.57;;;-0.60;99.90;;;;;;5037077;28;20053;-91
2021/11/29 06:44:15;;;;;;;15.00;11.27;;;-0.50;99.90;;;;;;5037196;28;20067;-91
2021/11/29 06:46:42;;;;;;;12.50;8.13;;;-0.50;99.90;;;;;;5036847;28;20140;-91
2021/11/29 06:49:09;;;;;;;11.02;7.95;;;-0.40;99.90;;;;;;5036756;28;20425;-91
2021/11/29 06:51:35;;;;;;;12.15;8.60;;;-0.40;99.90;;;;;;5036999;28;20049;-90
2021/11/29 06:54:02;;;;;;;11.98;8.00;;;-0.50;99.90;;;;;;5036752;28;20055;-90
2021/11/29 06:56:29;;;;;;;13.63;8.45;;;-0.60;99.90;;;;;;5053814;28;20048;-90
2021/11/29 06:58:56;;;;;;;16.90;11.98;;;-0.70;99.90;;;;;;5036406;28;20143;-91
2021/11/29 07:01:23;;;;;;;19.08;11.70;;;-0.70;99.90;;;;;;5053955;28;20055;-90
2021/11/29 07:03:51;;;;;;;17.50;10.75;;;-0.70;99.90;;;;;;5035920;28;20052;-91
2021/11/29 07:06:18;;;;;;;12.45;9.77;;;-0.70;99.90;;;;;;5036716;28;20463;-90
2021/11/29 07:08:45;;;;;;;17.27;10.20;;;-0.60;99.90;;;;;;5036167;28;20045;-91
2021/11/29 07:11:12;;;;;;;21.45;12.07;;;-0.60;99.90;;;;;;5036580;28;20045;-90
2021/11/29 07:13:39;;;;;;;21.75;12.30;;;-0.50;99.90;;;;;;5036293;28;20049;-91
2021/11/29 07:16:06;;;;;;;16.38;10.50;;;-0.50;99.90;;;;;;5035906;28;20136;-91
2021/11/29 07:18:33;;;;;;;15.93;10.30;;;-0.30;99.90;;;;;;5036258;28;20100;-91
2021/11/29 07:21:00;;;;;;;16.00;10.77;;;-0.20;99.90;;;;;;5036423;28;20505;-90
2021/11/29 07:23:27;;;;;;;15.75;9.98;;;-0.10;99.90;;;;;;5036277;28;20057;-91
2021/11/29 07:25:54;;;;;;;14.48;9.45;;;0.00;99.90;;;;;;5036365;28;20053;-90
2021/11/29 07:28:21;;;;;;;15.20;10.00;;;0.10;99.90;;;;;;5035809;28;20545;-91
2021/11/29 07:30:47;;;;;;;22.73;14.43;;;0.10;99.90;;;;;;5035763;28;20560;-91
2021/11/29 07:33:14;;;;;;;19.08;14.27;;;0.10;99.90;;;;;;5036072;28;20049;-90
2021/11/29 07:35:41;;;;;;;21.67;14.70;;;0.10;99.90;;;;;;5035998;28;20051;-91
2021/11/29 07:38:08;;;;;;;25.63;14.85;;;0.20;99.90;;;;;;5036172;28;20096;-91
2021/11/29 07:40:35;;;;;;;28.13;15.68;;;0.20;99.90;;;;;;5035804;28;20139;-90
2021/11/29 07:43:08;;;;;;;22.60;14.13;;;0.30;99.90;;;;;;5039859;28;20051;-90
2021/11/29 07:45:37;;;;;;;18.00;11.02;;;0.30;99.90;;;;;;5046280;28;20107;-91
2021/11/29 07:48:05;;;;;;;13.32;9.90;;;0.30;99.90;;;;;;5036270;28;20048;-91
2021/11/29 07:50:32;;;;;;;14.55;9.35;;;0.30;99.90;;;;;;5035860;28;20059;-90
2021/11/29 07:52:58;;;;;;;16.73;9.60;;;0.30;99.90;;;;;;5037225;28;20051;-90
2021/11/29 07:55:27;;;;;;;17.52;9.48;;;0.30;99.90;;;;;;5037011;28;20462;-91
2021/11/29 07:57:57;;;;;;;14.95;9.77;;;0.40;99.90;;;;;;5045092;28;20139;-90
2021/11/29 08:00:26;;;;;;;13.25;9.13;;;0.40;99.90;;;;;;5040120;28;20133;-91
2021/11/29 08:02:56;;;;;;;13.57;8.65;;;0.50;99.90;;;;;;5035994;28;20063;-91
2021/11/29 08:05:24;;;;;;;11.48;8.57;;;0.50;99.90;;;;;;5035881;28;20056;-91
2021/11/29 08:07:53;;;;;;;11.07;8.90;;;0.50;99.90;;;;;;5035614;28;20511;-91
2021/11/29 08:10:20;;;;;;;14.90;10.32;;;0.60;99.90;;;;;;5035656;28;20132;-90
2021/11/29 08:12:49;;;;;;;31.17;16.63;;;0.60;99.90;;;;;;5035779;28;20053;-91
2021/11/29 08:15:16;;;;;;;27.30;15.55;;;0.40;99.90;;;;;;5036061;28;20053;-91
2021/11/29 08:17:43;;;;;;;28.70;16.70;;;0.40;99.90;;;;;;5038983;28;20048;-90
2021/11/29 08:20:11;;;;;;;33.30;17.13;;;0.40;99.90;;;;;;5039302;28;20124;-90
2021/11/29 08:22:39;;;;;;;32.50;18.60;;;0.30;99.90;;;;;;5039490;28;20052;-90
2021/11/29 08:25:07;;;;;;;34.45;17.30;;;0.40;99.90;;;;;;5039704;28;20137;-91
2021/11/29 08:27:34;;;;;;;33.85;18.08;;;0.50;99.90;;;;;;5039680;28;20507;-91
2021/11/29 08:30:06;;;;;;;22.48;13.65;;;0.50;99.90;;;;;;5039384;28;20499;-90
2021/11/29 08:32:34;;;;;;;23.77;13.18;;;0.60;99.90;;;;;;5039446;28;20079;-91
2021/11/29 08:35:02;;;;;;;21.73;12.73;;;0.70;99.90;;;;;;5039448;28;20475;-90
2021/11/29 08:37:29;;;;;;;20.65;12.57;;;0.80;99.90;;;;;;5039034;28;20497;-90
2021/11/29 08:39:55;;;;;;;18.88;12.10;;;0.80;99.90;;;;;;5039029;28;20558;-90
2021/11/29 08:42:22;;;;;;;23.83;12.43;;;0.80;99.90;;;;;;5039231;28;20053;-90
2021/11/29 08:44:49;;;;;;;21.88;12.50;;;0.90;99.90;;;;;;5039025;28;20136;-90
2021/11/29 08:47:16;;;;;;;22.45;13.32;;;0.90;99.90;;;;;;5039237;28;20136;-90
2021/11/29 08:49:44;;;;;;;18.33;12.52;;;0.90;99.90;;;;;;5038853;28;20412;-90
2021/11/29 08:52:12;;;;;;;17.25;11.77;;;0.90;99.90;;;;;;5039178;28;20067;-90
2021/11/29 08:54:40;;;;;;;15.32;9.88;;;0.90;99.90;;;;;;5039051;28;20045;-90
2021/11/29 08:57:08;;;;;;;15.73;11.35;;;1.00;99.90;;;;;;5038741;28;20072;-91
2021/11/29 08:59:36;;;;;;;16.38;10.77;;;1.00;99.90;;;;;;5038578;28;20045;-90
2021/11/29 09:02:03;;;;;;;19.65;11.50;;;1.00;99.90;;;;;;5038391;28;20412;-90
2021/11/29 09:04:31;;;;;;;13.18;8.90;;;1.00;99.90;;;;;;5038603;28;20075;-90
2021/11/29 09:06:57;;;;;;;13.68;9.43;;;1.10;99.90;;;;;;5038528;28;20164;-89
2021/11/29 09:09:25;;;;;;;13.18;9.15;;;1.00;99.90;;;;;;5038367;28;20083;-90
2021/11/29 09:11:51;;;;;;;13.10;8.82;;;1.10;99.90;;;;;;5038562;28;20145;-90
2021/11/29 09:14:18;;;;;;;12.95;9.00;;;1.20;99.90;;;;;;5038695;28;20408;-90
2021/11/29 09:16:45;;;;;;;14.98;9.07;;;1.10;99.90;;;;;;5038175;28;20106;-90
2021/11/29 09:19:12;;;;;;;15.23;10.25;;;1.10;99.90;;;;;;5038298;28;20063;-90
2021/11/29 09:21:39;;;;;;;14.13;9.50;;;1.20;99.90;;;;;;5038498;28;20483;-90
2021/11/29 09:24:05;;;;;;;14.75;9.63;;;1.20;99.90;;;;;;5038439;28;20045;-89
2021/11/29 09:26:32;;;;;;;16.77;9.20;;;1.20;99.90;;;;;;5036435;28;20074;-90
2021/11/29 09:28:59;;;;;;;13.32;8.70;;;1.20;99.90;;;;;;5055150;28;20052;-90
2021/11/29 09:31:26;;;;;;;15.52;11.40;;;1.20;99.90;;;;;;5038103;28;20048;-90
2021/11/29 09:33:53;;;;;;;27.95;18.23;;;1.20;99.90;;;;;;5037662;28;20486;-90
2021/11/29 09:36:20;;;;;;;38.80;22.27;;;1.20;99.90;;;;;;5037885;28;20072;-90
2021/11/29 09:38:47;;;;;;;193.75;98.70;;;1.30;99.90;;;;;;5055188;28;20076;-89
2021/11/29 09:41:15;;;;;;;149.02;64.22;;;1.30;99.90;;;;;;5038289;28;20123;-89
2021/11/29 09:43:42;;;;;;;96.65;42.50;;;1.20;99.90;;;;;;5036454;28;20052;-89
2021/11/29 09:46:09;;;;;;;43.13;26.27;;;1.20;99.90;;;;;;5055213;28;20493;-89
2021/11/29 09:48:37;;;;;;;36.75;21.60;;;1.10;99.90;;;;;;5037621;28;20060;-89
2021/11/29 09:51:23;;;;;;;35.25;20.85;;;1.10;99.90;;;;;;5040604;28;20053;-89
2021/11/29 09:53:51;;;;;;;39.75;23.25;;;1.10;99.90;;;;;;5055028;28;20076;-89
2021/11/29 09:56:17;;;;;;;36.83;21.88;;;1.00;99.90;;;;;;5037435;28;20063;-89
2021/11/29 09:58:47;;;;;;;34.78;21.95;;;1.00;99.90;;;;;;5037321;28;20045;-89
2021/11/29 10:01:16;;;;;;;34.83;21.58;;;1.20;99.90;;;;;;5041867;28;20144;-89
2021/11/29 10:04:00;;;;;;;26.10;17.15;;;1.20;99.90;;;;;;5040120;28;20045;-89
2021/11/29 10:06:27;;;;;;;24.63;15.20;;;1.40;99.90;;;;;;5037385;28;20088;-88
2021/11/29 10:08:54;;;;;;;26.67;17.20;;;1.60;99.90;;;;;;5037344;28;20473;-88
2021/11/29 10:11:28;;;;;;;56.97;34.10;;;1.70;99.90;;;;;;5037885;28;20084;-88
2021/11/29 10:14:05;;;;;;;47.58;29.20;;;1.80;99.90;;;;;;5037297;28;20235;-88
2021/11/29 10:16:44;;;;;;;35.88;23.73;;;2.00;99.90;;;;;;5036881;28;20559;-88
2021/11/29 10:19:32;;;;;;;34.10;21.25;;;2.10;99.90;;;;;;5037067;28;20111;-87
2021/11/29 10:22:18;;;;;;;24.17;17.15;;;2.50;99.90;;;;;;5054687;28;20485;-87
2021/11/29 10:24:46;;;;;;;29.52;18.50;;;3.10;99.90;;;;;;5036773;28;20466;-87
2021/11/29 10:27:14;;;;;;;24.00;15.90;;;3.70;99.90;;;;;;5054587;28;20051;-87
2021/11/29 10:29:52;;;;;;;24.83;18.33;;;4.30;99.90;;;;;;5036846;28;20049;-87
2021/11/29 10:32:41;;;;;;;26.80;18.48;;;4.60;99.90;;;;;;5036396;28;20045;-87
2021/11/29 10:35:13;;;;;;;28.45;18.58;;;4.80;99.90;;;;;;5036821;28;20059;-86
2021/11/29 10:37:43;;;;;;;27.48;18.33;;;4.90;99.90;;;;;;5036775;28;20053;-86
2021/11/29 10:40:14;;;;;;;23.48;15.25;;;4.40;99.90;;;;;;5036113;28;20041;-86
2021/11/29 10:42:41;;;;;;;25.45;16.45;;;4.30;99.90;;;;;;5053975;28;20056;-86
2021/11/29 10:45:19;;;;;;;25.80;16.25;;;4.20;99.90;;;;;;5036733;28;20045;-86
2021/11/29 10:47:49;;;;;;;74.75;45.83;;;3.90;99.90;;;;;;5045676;28;20566;-86
2021/11/29 10:50:16;;;;;;;26.65;16.65;;;3.30;99.90;;;;;;5035987;28;20049;-86
2021/11/29 10:52:45;;;;;;;58.30;34.22;;;3.00;99.90;;;;;;5035967;28;20059;-86
2021/11/29 10:55:13;;;;;;;202.38;123.30;;;2.80;99.90;;;;;;5036760;28;20044;-86
2021/11/29 10:57:52;;;;;;;36.97;22.42;;;2.50;99.90;;;;;;5035635;28;20141;-86
2021/11/29 11:00:19;;;;;;;23.35;14.35;;;2.50;99.90;;;;;;5032527;28;20083;-86
2021/11/29 11:03:02;;;;;;;19.75;14.38;;;2.40;99.90;;;;;;5038962;28;20088;-86
2021/11/29 11:05:30;;;;;;;16.85;11.60;;;2.30;99.90;;;;;;5056020;28;20508;-86
2021/11/29 11:08:07;;;;;;;18.58;12.93;;;2.30;99.90;;;;;;5056109;28;20547;-85
2021/11/29 11:10:34;;;;;;;16.23;10.65;;;2.30;99.90;;;;;;5073113;28;20045;-86
2021/11/29 11:13:02;;;;;;;13.85;9.50;;;2.30;99.90;;;;;;5072982;28;20414;-85
2021/11/29 11:15:31;;;;;;;10.48;6.82;;;2.30;99.90;;;;;;5055762;28;20040;-86
2021/11/29 11:18:01;;;;;;;12.82;8.27;;;2.40;99.90;;;;;;5072155;28;20307;-85
2021/11/29 11:20:28;;;;;;;22.50;13.52;;;2.70;99.90;;;;;;5055992;28;20091;-85
2021/11/29 11:22:56;;;;;;;14.10;9.95;;;2.70;99.90;;;;;;5055434;28;20503;-86
2021/11/29 11:25:30;;;;;;;14.50;10.15;;;2.60;99.90;;;;;;5055409;28;20052;-85
2021/11/29 11:28:03;;;;;;;15.82;8.25;;;2.60;99.90;;;;;;5073039;28;20048;-85
2021/11/29 11:30:33;;;;;;;12.25;7.30;;;2.70;99.90;;;;;;5055573;28;20127;-85
2021/11/29 11:33:06;;;;;;;13.38;7.68;;;3.00;99.90;;;;;;5072855;28;20057;-85
2021/11/29 11:35:42;;;;;;;11.00;5.65;;;3.10;99.90;;;;;;5056207;28;20052;-85
2021/11/29 11:38:15;;;;;;;6.22;4.43;;;3.20;99.90;;;;;;5055078;28;20525;-85
2021/11/29 11:40:44;;;;;;;7.33;4.63;;;3.00;99.90;;;;;;5055084;28;20051;-85
2021/11/29 11:43:13;;;;;;;6.70;4.10;;;3.30;99.90;;;;;;5054882;28;20060;-85
2021/11/29 11:45:42;;;;;;;8.55;4.03;;;3.50;99.90;;;;;;5055189;28;20048;-85
2021/11/29 11:48:11;;;;;;;4.90;3.42;;;3.60;99.90;;;;;;5055073;28;20480;-85
2021/11/29 11:50:42;;;;;;;9.98;3.65;;;3.80;99.90;;;;;;5074505;28;20052;-85
2021/11/29 11:53:09;;;;;;;11.93;6.47;;;3.90;99.90;;;;;;5059220;28;20059;-85
2021/11/29 11:55:41;;;;;;;15.43;8.23;;;3.80;99.90;;;;;;5059294;28;20400;-85
2021/11/29 11:58:13;;;;;;;9.30;5.40;;;3.90;99.90;;;;;;5077088;28;20092;-85
2021/11/29 12:00:45;;;;;;;8.63;4.40;;;3.80;99.90;;;;;;5058333;28;20131;-86
2021/11/29 12:03:29;;;;;;;5.80;2.85;;;3.70;99.90;;;;;;5058505;28;20302;-85
2021/11/29 12:06:01;;;;;;;10.60;2.97;;;3.50;99.90;;;;;;5059320;28;20480;-86
2021/11/29 12:08:38;;;;;;;3.38;2.20;;;3.50;99.90;;;;;;5076963;28;20114;-85
2021/11/29 12:11:32;;;;;;;5.82;2.40;;;3.30;99.90;;;;;;5077160;28;20074;-86
2021/11/29 12:14:05;;;;;;;5.35;2.33;;;3.20;99.90;;;;;;5059063;28;20055;-85
2021/11/29 12:16:41;;;;;;;4.72;2.53;;;3.20;99.90;;;;;;5059388;28;20091;-86
2021/11/29 12:19:33;;;;;;;5.60;2.72;;;3.30;99.90;;;;;;5076214;28;20060;-85
2021/11/29 12:22:03;;;;;;;8.20;2.65;;;3.30;99.90;;;;;;5059047;28;20049;-85
2021/11/29 12:24:40;;;;;;;4.90;2.53;;;3.70;99.90;;;;;;5058874;28;20127;-86
2021/11/29 12:27:09;;;;;;;3.28;2.30;;;3.80;99.90;;;;;;5076607;28;20049;-85
2021/11/29 12:29:39;;;;;;;6.40;2.50;;;3.90;99.90;;;;;;5076141;28;20044;-85
2021/11/29 12:32:06;;;;;;;4.35;2.55;;;3.80;99.90;;;;;;5058756;28;20135;-85
2021/11/29 12:34:49;;;;;;;4.70;2.55;;;3.70;99.90;;;;;;5058481;28;20040;-86
2021/11/29 12:37:25;;;;;;;6.88;2.78;;;3.70;99.90;;;;;;5059066;28;20058;-85
2021/11/29 12:39:59;;;;;;;4.30;2.88;;;3.60;99.90;;;;;;5076487;28;20128;-85
2021/11/29 12:42:26;;;;;;;12.20;7.53;;;3.50;99.90;;;;;;5076374;28;20135;-85
2021/11/29 12:44:58;;;;;;;8.27;3.90;;;3.40;99.90;;;;;;5075862;28;20489;-85
2021/11/29 12:47:43;;;;;;;5.95;3.65;;;3.30;99.90;;;;;;5058535;28;20503;-85